Dynasty — CFK5241 — position and weather

sailwx.info

Track history (hours):
 
Tides and Currents Weather Stations Pressure Air Temp Water Temp Dewpoint Dewpoint Depression Visibility Wind Speed Wind Dir Waves Ship Positions

Dynasty

Last reported at 2017-Sep-24 19:28 UTC. Time now 2017-Dec-13 07:30 UTC.
Position N 48°46' W 123°22'.
Warning: this ship's position is months out of date.

Length 12 m.

Type: Pleasure craft. MMSI: 316027199.

Date/timePositionNaut miles runAvg speedWind from/ knotsBaromVisibWave heightAir tempDewpointWater temp
2017-Sep-24 19:28N 48°46' W 123°22'4 7.8
2017-Sep-24 18:59N 48°49' W 123°26'4 7.1
2017-Sep-24 18:29N 48°51' W 123°30'0 0.2
2017-Sep-24 17:59N 48°51' W 123°30'0 0.0
2017-Sep-24 17:29N 48°51' W 123°30'0 0.0
2017-Sep-24 16:59N 48°51' W 123°30'0 0.0
2017-Sep-24 16:29N 48°51' W 123°30'0 0.0
2017-Sep-24 15:59N 48°51' W 123°30'0 0.0
2017-Sep-24 15:29N 48°51' W 123°30'0 0.0
2017-Sep-24 14:59N 48°51' W 123°30'0 0.0
2017-Sep-24 14:29N 48°51' W 123°30'0 0.0
2017-Sep-24 13:59N 48°51' W 123°30'0 0.0
2017-Sep-24 13:29N 48°51' W 123°30'0 0.0
2017-Sep-24 12:59N 48°51' W 123°30'0 0.0
2017-Sep-24 12:29N 48°51' W 123°30'0 0.0
2017-Sep-24 11:59N 48°51' W 123°30'0 0.0
2017-Sep-24 11:29N 48°51' W 123°30'0 0.0
2017-Sep-24 10:59N 48°51' W 123°30'0 0.0
2017-Sep-24 10:29N 48°51' W 123°30'0 0.0
2017-Sep-24 09:59N 48°51' W 123°30'0 0.0
2017-Sep-24 09:29N 48°51' W 123°30'0 0.0
2017-Sep-24 08:59N 48°51' W 123°30'0 0.0
2017-Sep-24 08:29N 48°51' W 123°30'0 0.0
2017-Sep-24 07:59N 48°51' W 123°30'0 0.0
2017-Sep-24 07:29N 48°51' W 123°30'0 0.0
2017-Sep-24 06:59N 48°51' W 123°30'0 0.0
2017-Sep-24 06:29N 48°51' W 123°30'0 0.0
2017-Sep-24 05:59N 48°51' W 123°30'0 0.0
2017-Sep-24 05:29N 48°51' W 123°30'0 0.0
2017-Sep-24 04:59N 48°51' W 123°30'0 0.0
2017-Sep-24 04:29N 48°51' W 123°30'0 0.0
2017-Sep-24 03:59N 48°51' W 123°30'0 0.0
2017-Sep-24 03:29N 48°51' W 123°30'0 0.0
2017-Sep-24 02:59N 48°51' W 123°30'0 0.0
2017-Sep-24 02:29N 48°51' W 123°30'0 0.0
2017-Sep-24 01:59N 48°51' W 123°30'0 0.0
2017-Sep-24 01:29N 48°51' W 123°30'0 0.0
2017-Sep-24 00:59N 48°51' W 123°30'0 0.0
2017-Sep-24 00:29N 48°51' W 123°30'0 0.0
2017-Sep-23 23:59N 48°51' W 123°30'0 0.0
2017-Sep-23 23:29N 48°51' W 123°30'0 0.0
2017-Sep-23 22:59N 48°51' W 123°30'0 0.0
2017-Sep-23 22:29N 48°51' W 123°30'0 0.0
2017-Sep-23 21:59N 48°51' W 123°30'0 0.0
2017-Sep-23 21:29N 48°51' W 123°30'0 0.0
2017-Sep-23 20:59N 48°51' W 123°30'0 0.0
2017-Sep-23 20:29N 48°51' W 123°30'0 0.0
2017-Sep-23 19:59N 48°51' W 123°30'0 0.0
2017-Sep-22 01:44N 48°51' W 123°30'0 0.0
2017-Sep-21 23:44N 48°51' W 123°30'0 0.0
2017-Sep-21 23:26N 48°51' W 123°30'0 0.1
2017-Sep-21 22:58N 48°51' W 123°30'3 6.5
2017-Sep-21 22:30N 48°50' W 123°26'6 6.3
2017-Sep-21 21:33N 48°44' W 123°23'0 7.3
2017-Sep-21 21:30N 48°44' W 123°23'  
2017-Sep-16 19:09N 48°33' W 123°18'1 7.6
2017-Sep-16 18:59N 48°32' W 123°17'4 7.5
2017-Sep-16 18:30N 48°28' W 123°16'4 7.1
2017-Sep-16 18:00N 48°25' W 123°17'32 1.6
2017-Sep-15 21:51N 48°23' W 124°05'3 8.3
2017-Sep-15 21:30N 48°24' W 124°09'4 8.6
2017-Sep-15 20:59N 48°26' W 124°15'4 8.3
2017-Sep-15 20:29N 48°28' W 124°21'4 8.6
2017-Sep-15 20:00N 48°30' W 124°26'3 6.7
2017-Sep-15 19:29N 48°31' W 124°31'4 8.5
2017-Sep-15 19:00N 48°33' W 124°37'4 8.4
2017-Sep-15 18:29N 48°34' W 124°43'  
Track history (hours):
 
Tides and Currents Weather Stations Pressure Air Temp Water Temp Dewpoint Dewpoint Depression Visibility Wind Speed Wind Dir Waves Ship Positions

Dynasty

Last reported at 2017-Sep-24 19:28 UTC. Time now 2017-Dec-13 07:30 UTC.
Position N 48°46' W 123°22'.
Warning: this ship's position is months out of date.

Length 12 m.

Type: Pleasure craft. MMSI: 316027199.

Date/timePositionNaut miles runAvg speedWind from/ knotsBaromVisibWave heightAir tempDewpointWater temp
2017-Sep-24 19:28N 48°46' W 123°22'4 7.8
2017-Sep-24 18:59N 48°49' W 123°26'4 7.1
2017-Sep-24 18:29N 48°51' W 123°30'0 0.2
2017-Sep-24 17:59N 48°51' W 123°30'0 0.0
2017-Sep-24 17:29N 48°51' W 123°30'0 0.0
2017-Sep-24 16:59N 48°51' W 123°30'0 0.0
2017-Sep-24 16:29N 48°51' W 123°30'0 0.0
2017-Sep-24 15:59N 48°51' W 123°30'0 0.0
2017-Sep-24 15:29N 48°51' W 123°30'0 0.0
2017-Sep-24 14:59N 48°51' W 123°30'0 0.0
2017-Sep-24 14:29N 48°51' W 123°30'0 0.0
2017-Sep-24 13:59N 48°51' W 123°30'0 0.0
2017-Sep-24 13:29N 48°51' W 123°30'0 0.0
2017-Sep-24 12:59N 48°51' W 123°30'0 0.0
2017-Sep-24 12:29N 48°51' W 123°30'0 0.0
2017-Sep-24 11:59N 48°51' W 123°30'0 0.0
2017-Sep-24 11:29N 48°51' W 123°30'0 0.0
2017-Sep-24 10:59N 48°51' W 123°30'0 0.0
2017-Sep-24 10:29N 48°51' W 123°30'0 0.0
2017-Sep-24 09:59N 48°51' W 123°30'0 0.0
2017-Sep-24 09:29N 48°51' W 123°30'0 0.0
2017-Sep-24 08:59N 48°51' W 123°30'0 0.0
2017-Sep-24 08:29N 48°51' W 123°30'0 0.0
2017-Sep-24 07:59N 48°51' W 123°30'0 0.0
2017-Sep-24 07:29N 48°51' W 123°30'0 0.0
2017-Sep-24 06:59N 48°51' W 123°30'0 0.0
2017-Sep-24 06:29N 48°51' W 123°30'0 0.0
2017-Sep-24 05:59N 48°51' W 123°30'0 0.0
2017-Sep-24 05:29N 48°51' W 123°30'0 0.0
2017-Sep-24 04:59N 48°51' W 123°30'0 0.0
2017-Sep-24 04:29N 48°51' W 123°30'0 0.0
2017-Sep-24 03:59N 48°51' W 123°30'0 0.0
2017-Sep-24 03:29N 48°51' W 123°30'0 0.0
2017-Sep-24 02:59N 48°51' W 123°30'0 0.0
2017-Sep-24 02:29N 48°51' W 123°30'0 0.0
2017-Sep-24 01:59N 48°51' W 123°30'0 0.0
2017-Sep-24 01:29N 48°51' W 123°30'0 0.0
2017-Sep-24 00:59N 48°51' W 123°30'0 0.0
2017-Sep-24 00:29N 48°51' W 123°30'0 0.0
2017-Sep-23 23:59N 48°51' W 123°30'0 0.0
2017-Sep-23 23:29N 48°51' W 123°30'0 0.0
2017-Sep-23 22:59N 48°51' W 123°30'0 0.0
2017-Sep-23 22:29N 48°51' W 123°30'0 0.0
2017-Sep-23 21:59N 48°51' W 123°30'0 0.0
2017-Sep-23 21:29N 48°51' W 123°30'0 0.0
2017-Sep-23 20:59N 48°51' W 123°30'0 0.0
2017-Sep-23 20:29N 48°51' W 123°30'0 0.0
2017-Sep-23 19:59N 48°51' W 123°30'0 0.0
2017-Sep-22 01:44N 48°51' W 123°30'0 0.0
2017-Sep-21 23:44N 48°51' W 123°30'0 0.0
2017-Sep-21 23:26N 48°51' W 123°30'0 0.1
2017-Sep-21 22:58N 48°51' W 123°30'3 6.5
2017-Sep-21 22:30N 48°50' W 123°26'6 6.3
2017-Sep-21 21:33N 48°44' W 123°23'0 7.3
2017-Sep-21 21:30N 48°44' W 123°23'  
2017-Sep-16 19:09N 48°33' W 123°18'1 7.6
2017-Sep-16 18:59N 48°32' W 123°17'4 7.5
2017-Sep-16 18:30N 48°28' W 123°16'4 7.1
2017-Sep-16 18:00N 48°25' W 123°17'32 1.6
2017-Sep-15 21:51N 48°23' W 124°05'3 8.3
2017-Sep-15 21:30N 48°24' W 124°09'4 8.6
2017-Sep-15 20:59N 48°26' W 124°15'4 8.3
2017-Sep-15 20:29N 48°28' W 124°21'4 8.6
2017-Sep-15 20:00N 48°30' W 124°26'3 6.7
2017-Sep-15 19:29N 48°31' W 124°31'4 8.5
2017-Sep-15 19:00N 48°33' W 124°37'4 8.4
2017-Sep-15 18:29N 48°34' W 124°43'  

Dump ship's entire track history